createdAt,value
2018-07-25T00:02:01.235Z,3.6
2018-07-25T00:05:01.205Z,3.6
2018-07-25T00:08:01.058Z,3.5
2018-07-25T00:11:01.373Z,3.5
2018-07-25T00:14:01.259Z,3.7
2018-07-25T00:17:01.245Z,3.6
2018-07-25T00:20:01.161Z,3.5
2018-07-25T00:23:01.294Z,3.4
2018-07-25T00:26:01.329Z,3.3
2018-07-25T00:29:01.371Z,3.4
2018-07-25T00:32:01.418Z,3.4
2018-07-25T00:35:01.314Z,3.5
2018-07-25T00:38:01.261Z,3.6
2018-07-25T00:41:01.314Z,3.6
2018-07-25T00:44:01.212Z,3.6
2018-07-25T00:47:01.197Z,3.6
2018-07-25T00:50:01.031Z,3.6
2018-07-25T00:53:01.451Z,3.4
2018-07-25T00:56:01.367Z,3.4
2018-07-25T00:59:01.287Z,3.6
2018-07-25T01:02:01.093Z,3.5
2018-07-25T01:05:01.252Z,3.5
2018-07-25T01:08:01.133Z,3.4
2018-07-25T01:11:01.214Z,3.5
2018-07-25T01:14:01.206Z,3.5
2018-07-25T01:17:01.132Z,3.5
2018-07-25T01:20:01.172Z,3.5
2018-07-25T01:23:01.409Z,3.5
2018-07-25T01:26:01.172Z,3.5
2018-07-25T01:29:01.272Z,3.5
2018-07-25T01:32:01.387Z,3.5
2018-07-25T01:35:01.194Z,3.5
2018-07-25T01:38:01.341Z,3.5
2018-07-25T01:41:01.444Z,3.4
2018-07-25T01:44:01.256Z,3.4
2018-07-25T01:47:01.566Z,3.4
2018-07-25T01:50:01.512Z,3.5
2018-07-25T01:53:01.202Z,3.5
2018-07-25T01:56:01.267Z,3.6
2018-07-25T01:59:01.265Z,3.5
2018-07-25T02:02:01.375Z,4.1
2018-07-25T02:05:01.412Z,3.8
2018-07-25T02:08:01.530Z,3.7
2018-07-25T02:11:01.279Z,3.7
2018-07-25T02:14:01.366Z,3.6
2018-07-25T02:17:01.304Z,3.4
2018-07-25T02:20:01.419Z,3.4
2018-07-25T02:23:01.348Z,3.6
2018-07-25T02:26:01.073Z,3.5
2018-07-25T02:29:01.249Z,3.5
2018-07-25T02:32:01.169Z,3.4
2018-07-25T02:35:01.343Z,3.4
2018-07-25T02:38:01.410Z,3.5
2018-07-25T02:41:01.227Z,3.4
2018-07-25T02:44:01.247Z,3.4
2018-07-25T02:47:01.606Z,3.5
2018-07-25T02:50:01.256Z,3.6
2018-07-25T02:53:01.044Z,3.6
2018-07-25T02:56:01.132Z,3.7
2018-07-25T02:59:01.367Z,3.6
2018-07-25T03:02:02.005Z,3.6
2018-07-25T03:05:01.253Z,3.6
2018-07-25T03:08:01.541Z,3.6
2018-07-25T03:11:01.330Z,3.6
2018-07-25T03:14:01.302Z,3.6
2018-07-25T03:17:01.328Z,3.6
2018-07-25T03:20:01.631Z,3.7
2018-07-25T03:23:01.181Z,3.6
2018-07-25T03:26:01.117Z,3.7
2018-07-25T03:29:01.633Z,3.6
2018-07-25T03:32:01.381Z,3.5
2018-07-25T03:35:01.199Z,3.6
2018-07-25T03:38:01.723Z,3.7
2018-07-25T03:41:01.063Z,3.7
2018-07-25T03:44:01.155Z,3.7
2018-07-25T03:47:01.030Z,3.8
2018-07-25T03:50:01.183Z,3.7
2018-07-25T03:53:01.192Z,3.7
2018-07-25T03:56:01.067Z,3.8
2018-07-25T03:59:01.268Z,3.7
2018-07-25T04:02:02.408Z,3.8
2018-07-25T04:05:01.011Z,3.6
2018-07-25T04:08:01.244Z,3.7
2018-07-25T04:11:01.120Z,3.6
2018-07-25T04:14:01.121Z,3.6
2018-07-25T04:17:01.275Z,3.7
2018-07-25T04:20:01.232Z,3.8
2018-07-25T04:23:01.111Z,3.7
2018-07-25T04:26:01.092Z,3.8
2018-07-25T04:29:01.169Z,3.7
2018-07-25T04:32:01.052Z,3.7
2018-07-25T04:35:01.115Z,3.7
2018-07-25T04:38:01.310Z,3.7
2018-07-25T04:41:01.032Z,3.8
2018-07-25T04:44:01.057Z,3.8
2018-07-25T04:47:01.314Z,3.8
2018-07-25T04:50:01.068Z,3.8
2018-07-25T04:53:01.301Z,3.7
2018-07-25T04:56:01.893Z,3.6
2018-07-25T04:59:01.005Z,3.7
2018-07-25T05:02:01.211Z,3.7
2018-07-25T05:05:01.015Z,3.8
2018-07-25T05:08:01.039Z,3.7
2018-07-25T05:11:01.179Z,3.7
2018-07-25T05:14:01.204Z,3.7
2018-07-25T05:17:01.184Z,3.5
2018-07-25T05:20:01.221Z,3.6
2018-07-25T05:23:01.093Z,3.7
2018-07-25T05:26:00.979Z,3.7
2018-07-25T05:29:01.299Z,3.8
2018-07-25T05:32:01.010Z,3.7
2018-07-25T05:35:01.018Z,3.6
2018-07-25T05:38:01.967Z,3.7
2018-07-25T05:41:01.194Z,3.8
2018-07-25T05:44:01.031Z,4
2018-07-25T05:47:01.130Z,4
2018-07-25T05:50:01.181Z,4
2018-07-25T05:53:01.069Z,4
2018-07-25T05:56:01.166Z,3.9
2018-07-25T05:59:01.042Z,4
2018-07-25T06:02:01.059Z,3.9
2018-07-25T06:05:01.174Z,3.9
2018-07-25T06:08:01.047Z,3.9
2018-07-25T06:11:01.209Z,3.9
2018-07-25T06:14:01.077Z,4
2018-07-25T06:17:01.063Z,4
2018-07-25T06:20:00.962Z,3.9
2018-07-25T06:23:01.004Z,3.9
2018-07-25T06:26:02.289Z,4
2018-07-25T06:29:00.972Z,4
2018-07-25T06:32:01.013Z,3.9
2018-07-25T06:35:01.168Z,3.8
2018-07-25T06:38:02.625Z,3.8
2018-07-25T06:41:00.987Z,3.9
2018-07-25T06:44:01.082Z,4
2018-07-25T06:47:01.467Z,3.9
2018-07-25T06:50:01.022Z,3.9
2018-07-25T06:53:01.020Z,3.9
2018-07-25T06:56:01.202Z,4
2018-07-25T06:59:01.119Z,4
2018-07-25T07:02:01.010Z,4
2018-07-25T07:05:01.206Z,4
2018-07-25T07:08:01.106Z,4
2018-07-25T07:11:01.294Z,4
2018-07-25T07:14:01.348Z,4.1
2018-07-25T07:17:00.929Z,3.9
2018-07-25T07:20:01.065Z,3.8
2018-07-25T07:23:01.261Z,4
2018-07-25T07:26:01.168Z,3.9
2018-07-25T07:29:01.062Z,3.9
2018-07-25T07:32:01.083Z,3.9
2018-07-25T07:35:01.733Z,3.8
2018-07-25T07:38:01.039Z,3.8
2018-07-25T07:41:01.094Z,3.9
2018-07-25T07:44:12.550Z,3.9
2018-07-25T07:47:01.204Z,3.8
2018-07-25T07:50:01.263Z,3.8
2018-07-25T07:53:01.102Z,3.8
2018-07-25T07:56:01.084Z,3.9
2018-07-25T07:59:01.212Z,3.8
2018-07-25T08:02:01.083Z,4.6
2018-07-25T08:05:02.525Z,4.2
2018-07-25T08:08:01.139Z,4
2018-07-25T08:11:01.229Z,4
2018-07-25T08:14:01.105Z,4
2018-07-25T08:17:01.064Z,4
2018-07-25T08:20:02.230Z,4.2
2018-07-25T08:23:01.020Z,4.3
2018-07-25T08:26:01.149Z,5.7
2018-07-25T08:29:01.183Z,6.3
2018-07-25T08:32:01.268Z,6.4
2018-07-25T08:35:01.140Z,5.4
2018-07-25T08:38:01.097Z,5.1
2018-07-25T08:41:01.202Z,4.8
2018-07-25T09:43:28.063Z,6.6
2018-07-25T09:46:29.157Z,5.7
2018-07-25T09:49:27.723Z,5.2
2018-07-25T09:55:27.605Z,5.6
2018-07-25T10:01:27.401Z,5.3
2018-07-25T10:04:27.427Z,4.9
2018-07-25T10:07:28.884Z,4.8
2018-07-25T10:13:27.656Z,5.3
2018-07-25T10:16:27.590Z,5.3
2018-07-25T10:19:27.522Z,5
2018-07-25T10:22:27.819Z,4.8
2018-07-25T10:25:27.569Z,5.2
2018-07-25T10:31:27.547Z,5.1
2018-07-25T10:34:27.592Z,5
2018-07-25T10:37:27.677Z,4.9
2018-07-25T10:43:27.745Z,4.7
2018-07-25T10:46:27.465Z,4.7
2018-07-25T10:49:27.550Z,4.8
2018-07-25T10:55:27.583Z,4.8
2018-07-25T10:58:27.638Z,4.8
2018-07-25T11:01:27.867Z,4.8
2018-07-25T11:04:27.886Z,4.8
2018-07-25T11:10:27.565Z,4.8
2018-07-25T11:16:29.979Z,4.9
2018-07-25T11:19:27.919Z,4.8
2018-07-25T11:22:28.588Z,4.8
2018-07-25T11:28:27.406Z,5
2018-07-25T11:31:27.381Z,5
2018-07-25T11:34:27.486Z,5.1
2018-07-25T11:37:27.331Z,5.2
2018-07-25T11:43:27.369Z,5.2
2018-07-25T11:46:27.361Z,5.2
2018-07-25T11:49:27.333Z,5.3
2018-07-25T11:52:27.358Z,5.3
2018-07-25T11:55:29.066Z,5.4
2018-07-25T11:58:27.408Z,5.3
2018-07-25T12:04:27.367Z,5.6
2018-07-25T12:10:27.520Z,5.5
2018-07-25T12:13:27.698Z,5.3
2018-07-25T12:16:27.465Z,5.3
2018-07-25T12:19:27.475Z,5.8
2018-07-25T12:25:27.504Z,5.4
2018-07-25T12:31:30.819Z,5.4
2018-07-25T12:37:27.586Z,5.5
2018-07-25T12:40:27.439Z,5.5
2018-07-25T12:43:27.486Z,5.4
2018-07-25T12:46:32.332Z,5.4
2018-07-25T12:52:27.530Z,6.9
2018-07-25T12:55:27.382Z,7.4
2018-07-25T12:58:27.503Z,7.9
2018-07-25T13:01:27.514Z,9.1
2018-07-25T13:07:27.545Z,11.7
2018-07-25T13:10:28.630Z,10.5
2018-07-25T13:13:27.778Z,8.6
2018-07-25T13:19:27.560Z,8
2018-07-25T13:22:27.691Z,7.3
2018-07-25T13:25:27.659Z,8.5
2018-07-25T13:28:29.589Z,8.1
2018-07-25T13:34:27.754Z,7.3
2018-07-25T13:40:27.525Z,6.3
2018-07-25T13:43:27.504Z,6.2
2018-07-25T13:49:27.494Z,5.6
2018-07-25T13:55:27.515Z,6.8
2018-07-25T13:58:27.612Z,6.2
2018-07-25T14:01:27.326Z,5.9
2018-07-25T14:04:27.589Z,6.3
2018-07-25T14:10:27.448Z,6.5
2018-07-25T14:13:27.512Z,6.4
2018-07-25T14:16:27.512Z,5.8
2018-07-25T14:19:27.469Z,5.5
2018-07-25T14:22:31.710Z,5.6
2018-07-25T14:25:27.513Z,6.1
2018-07-25T14:28:27.604Z,5.8
2018-07-25T14:31:27.547Z,5.8
2018-07-25T14:34:27.644Z,5.6
2018-07-25T14:37:32.370Z,5.6
2018-07-25T14:43:27.729Z,5.9
2018-07-25T14:46:27.450Z,5.4
2018-07-25T14:49:27.521Z,5.4
2018-07-25T14:55:27.528Z,5.2
2018-07-25T14:58:27.373Z,5.1
2018-07-25T15:04:27.628Z,5.1
2018-07-25T15:07:27.480Z,5.4
2018-07-25T15:10:27.457Z,5.3
2018-07-25T15:16:27.601Z,5.1
2018-07-25T15:22:27.594Z,5.3
2018-07-25T15:25:27.458Z,5.2
2018-07-25T15:28:32.630Z,5.3
2018-07-25T15:34:27.761Z,5.1
2018-07-25T15:37:27.736Z,4.9
2018-07-25T15:40:27.602Z,4.9
2018-07-25T15:43:27.605Z,4.9
2018-07-25T15:46:27.511Z,4.9
2018-07-25T15:49:32.807Z,5.1
2018-07-25T15:55:27.586Z,4.9
2018-07-25T16:01:27.510Z,4.9
2018-07-25T16:04:32.281Z,4.8
2018-07-25T16:10:27.420Z,4.8
2018-07-25T16:13:27.523Z,4.7
2018-07-25T16:16:27.390Z,4.6
2018-07-25T16:22:27.453Z,4.8
2018-07-25T16:25:27.527Z,4.8
2018-07-25T16:28:27.464Z,5
2018-07-25T16:31:27.637Z,4.8
2018-07-25T16:37:27.444Z,4.8
2018-07-25T16:43:27.464Z,4.6
2018-07-25T16:46:27.366Z,6.9
2018-07-25T16:49:32.079Z,8.3
2018-07-25T16:52:27.486Z,8.4
2018-07-25T17:01:27.447Z,7.7
2018-07-25T17:07:27.395Z,8.9
2018-07-25T17:10:27.579Z,8.7
2018-07-25T17:13:27.539Z,9.2
2018-07-25T17:16:27.639Z,11
2018-07-25T17:22:28.838Z,10.4
2018-07-25T17:25:27.900Z,11.7
2018-07-25T17:28:27.927Z,12.6
2018-07-25T17:31:27.505Z,13.3
2018-07-25T17:37:27.255Z,9.6
2018-07-25T17:40:32.330Z,9.9
2018-07-25T17:46:27.414Z,9.3
2018-07-25T17:52:27.554Z,7.5
2018-07-25T17:55:31.946Z,7.4
2018-07-25T17:58:27.446Z,6.4
2018-07-25T18:01:27.409Z,7.6
2018-07-25T18:07:27.402Z,7.9
2018-07-25T18:10:27.297Z,7
2018-07-25T18:13:27.242Z,6.4
2018-07-25T18:16:27.370Z,6
2018-07-25T18:22:27.539Z,5.8
2018-07-25T18:25:27.851Z,5.6
2018-07-25T18:28:27.555Z,5.8
2018-07-25T18:31:27.500Z,5.9
2018-07-25T18:37:28.138Z,5.8
2018-07-25T18:40:27.527Z,5.9
2018-07-25T18:43:27.336Z,6
2018-07-25T18:49:27.521Z,6.8
2018-07-25T18:55:27.276Z,6.6
2018-07-25T19:01:27.222Z,6.3
2018-07-25T19:04:27.179Z,6.5
2018-07-25T19:07:28.708Z,6
2018-07-25T19:10:27.157Z,6.4
2018-07-25T19:16:27.189Z,7.4
2018-07-25T19:19:27.516Z,6.6
2018-07-25T19:22:27.261Z,6.4
2018-07-25T19:25:27.392Z,6.1
2018-07-25T19:28:27.481Z,6.7
2018-07-25T19:34:27.360Z,7.3
2018-07-25T19:37:27.475Z,6.9
2018-07-25T19:40:27.266Z,7.3
2018-07-25T19:43:28.777Z,7
2018-07-25T19:49:28.199Z,6.7
2018-07-25T19:52:27.461Z,7.4
2018-07-25T19:55:27.522Z,7
2018-07-25T19:58:27.469Z,6.2
2018-07-25T20:04:27.447Z,6.2
2018-07-25T20:10:27.683Z,5.9
2018-07-25T20:13:27.402Z,5.2
2018-07-25T20:19:27.370Z,5
2018-07-25T20:22:28.518Z,4.7
2018-07-25T20:25:27.504Z,4.6
2018-07-25T20:31:28.535Z,4.7
2018-07-25T20:34:27.415Z,4.8
2018-07-25T20:40:27.255Z,4.8
2018-07-25T20:43:27.293Z,4.5
2018-07-25T20:46:27.228Z,4.6
2018-07-25T20:49:27.290Z,4.8
2018-07-25T20:55:27.089Z,4.8
2018-07-25T20:58:27.258Z,4.8
2018-07-25T21:01:27.291Z,4.8
2018-07-25T21:04:27.352Z,4.6
2018-07-25T21:10:28.091Z,4.8
2018-07-25T21:13:27.538Z,4.6
2018-07-25T21:16:27.392Z,4.4
2018-07-25T21:22:27.409Z,4.4
2018-07-25T21:25:27.350Z,4.5
2018-07-25T21:28:27.326Z,4.1
2018-07-25T21:31:27.236Z,4.2
2018-07-25T21:37:27.328Z,4.9
2018-07-25T21:40:27.561Z,4.7
2018-07-25T21:43:27.433Z,4.6
2018-07-25T21:46:27.567Z,4.8
2018-07-25T21:49:27.215Z,4.7
2018-07-25T21:52:27.449Z,4.5
2018-07-25T21:58:27.391Z,4.5
2018-07-25T22:01:27.341Z,4.4
2018-07-25T22:04:27.428Z,4.3
2018-07-25T22:07:27.301Z,4.1
2018-07-25T22:13:27.433Z,4.1
2018-07-25T22:16:27.362Z,4.2
2018-07-25T22:19:27.316Z,4.2
2018-07-25T22:22:27.458Z,4.2
2018-07-25T22:28:27.254Z,4.1
2018-07-25T22:34:27.369Z,4.1
2018-07-25T22:37:27.216Z,4
2018-07-25T22:40:27.317Z,4.3
2018-07-25T22:46:27.436Z,4.3
2018-07-25T22:52:27.256Z,4.3
2018-07-25T22:55:28.258Z,4
2018-07-25T23:01:27.325Z,4.1
2018-07-25T23:07:27.163Z,4
2018-07-25T23:10:27.366Z,4
2018-07-25T23:13:27.193Z,4
2018-07-25T23:16:27.218Z,3.9
2018-07-25T23:22:27.384Z,4
2018-07-25T23:25:27.242Z,3.9
2018-07-25T23:31:27.240Z,3.9
2018-07-25T23:34:27.271Z,4.1
2018-07-25T23:37:27.166Z,4
2018-07-25T23:43:27.170Z,4
2018-07-25T23:46:27.285Z,4
2018-07-25T23:49:27.513Z,3.9
2018-07-25T23:52:27.382Z,3.8
2018-07-25T23:55:27.145Z,3.8
2018-07-25T23:58:27.305Z,3.9
